createdAt,value
2022-12-16T00:00:31.189Z,4.50
2022-12-16T00:06:26.788Z,4.50
2022-12-16T00:12:21.217Z,4.30
2022-12-16T00:18:39.907Z,4.20
2022-12-16T00:24:58.260Z,4.00
2022-12-16T00:30:55.390Z,3.90
2022-12-16T00:36:49.906Z,3.90
2022-12-16T00:43:09.087Z,3.90
2022-12-16T00:49:27.501Z,3.90
2022-12-16T00:55:21.907Z,3.90
2022-12-16T01:01:16.443Z,3.80
2022-12-16T01:07:35.083Z,4.00
2022-12-16T01:13:55.173Z,4.20
2022-12-16T01:19:49.716Z,4.20
2022-12-16T01:25:44.917Z,4.40
2022-12-16T01:32:04.961Z,4.40
2022-12-16T01:38:23.616Z,4.60
2022-12-16T01:44:21.637Z,4.70
2022-12-16T01:50:16.114Z,4.80
2022-12-16T01:56:34.671Z,5.10
2022-12-16T02:02:53.230Z,5.00
2022-12-16T02:08:48.241Z,4.90
2022-12-16T02:15:01.398Z,4.80
2022-12-16T02:21:34.758Z,4.80
2022-12-16T02:28:09.218Z,4.80
2022-12-16T02:34:06.656Z,4.80
2022-12-16T02:40:02.875Z,4.70
2022-12-16T02:46:26.168Z,4.70
2022-12-16T02:52:44.616Z,4.70
2022-12-16T02:58:44.728Z,4.60
2022-12-16T03:04:58.367Z,4.50
2022-12-16T03:11:16.827Z,4.40
2022-12-16T03:17:35.170Z,4.40
2022-12-16T03:23:31.706Z,4.40
2022-12-16T03:29:38.705Z,4.40
2022-12-16T03:36:02.224Z,4.40
2022-12-16T03:42:20.573Z,4.40
2022-12-16T03:48:16.866Z,4.40
2022-12-16T03:54:11.329Z,4.30
2022-12-16T04:00:30.065Z,4.20
2022-12-16T04:07:08.360Z,4.00
2022-12-16T04:13:21.163Z,3.80
2022-12-16T04:19:45.391Z,3.60
2022-12-16T04:26:04.481Z,3.50
2022-12-16T04:32:23.347Z,3.50
2022-12-16T04:38:36.469Z,3.40
2022-12-16T04:44:49.613Z,3.30
2022-12-16T04:51:26.725Z,3.00
2022-12-16T04:58:06.564Z,2.90
2022-12-16T05:04:19.264Z,2.80
2022-12-16T05:10:32.355Z,2.70
2022-12-16T05:17:09.658Z,2.70
2022-12-16T05:23:46.290Z,2.70
2022-12-16T05:29:58.907Z,2.60
2022-12-16T05:36:11.986Z,2.50
2022-12-16T05:42:48.911Z,2.50
2022-12-16T05:49:25.921Z,2.60
2022-12-16T05:55:38.680Z,2.80
2022-12-16T06:01:51.978Z,2.80
2022-12-16T06:08:29.204Z,3.10
2022-12-16T06:15:06.052Z,3.10
2022-12-16T06:21:18.734Z,3.20
2022-12-16T06:27:31.809Z,3.20
2022-12-16T06:34:09.101Z,3.20
2022-12-16T06:40:45.999Z,3.20
2022-12-16T06:46:58.688Z,3.20
2022-12-16T06:53:11.702Z,3.00
2022-12-16T06:59:48.648Z,2.80
2022-12-16T07:06:25.553Z,2.60
2022-12-16T07:12:38.329Z,2.40
2022-12-16T07:18:51.605Z,2.20
2022-12-16T07:25:28.882Z,2.00
2022-12-16T07:32:05.636Z,1.90
2022-12-16T07:38:18.860Z,1.80
2022-12-16T07:44:32.035Z,1.60
2022-12-16T07:51:09.075Z,1.50
2022-12-16T07:59:36.840Z,1.60
2022-12-16T08:05:49.695Z,1.50
2022-12-16T08:12:23.562Z,1.40
2022-12-16T08:19:02.029Z,1.40
2022-12-16T08:25:40.734Z,1.30
2022-12-16T08:31:53.711Z,1.40
2022-12-16T08:38:13.741Z,1.40
2022-12-16T08:44:50.870Z,1.60
2022-12-16T08:51:27.690Z,1.70
2022-12-16T08:57:40.557Z,1.90
2022-12-16T09:03:54.952Z,2.10
2022-12-16T09:10:37.612Z,2.30
2022-12-16T09:17:16.843Z,2.50
2022-12-16T09:23:29.823Z,2.80
2022-12-16T09:29:45.027Z,3.00
2022-12-16T09:36:22.208Z,3.20
2022-12-16T09:43:07.700Z,3.40
2022-12-16T09:49:33.112Z,3.60
2022-12-16T09:55:51.681Z,3.80
2022-12-16T10:02:32.324Z,3.70
2022-12-16T10:09:14.834Z,3.80
2022-12-16T10:15:46.859Z,3.90
2022-12-16T10:22:28.162Z,4.30
2022-12-16T10:29:11.822Z,4.70
2022-12-16T10:36:01.084Z,5.20
2022-12-16T10:42:13.863Z,5.40
2022-12-16T10:48:29.112Z,5.70
2022-12-16T10:55:16.537Z,5.80
2022-12-16T11:01:54.058Z,6.10
2022-12-16T11:08:11.735Z,6.40
2022-12-16T11:14:47.025Z,6.40
2022-12-16T11:21:39.882Z,6.20
2022-12-16T11:28:23.451Z,6.20
2022-12-16T11:34:52.991Z,6.40
2022-12-16T11:41:06.886Z,6.40
2022-12-16T11:48:03.918Z,6.60
2022-12-16T11:54:42.255Z,7.00
2022-12-16T12:00:55.202Z,6.80
2022-12-16T12:07:30.530Z,6.70
2022-12-16T12:14:40.946Z,6.70
2022-12-16T12:21:29.624Z,6.40
2022-12-16T12:28:01.784Z,6.40
2022-12-16T12:34:27.251Z,6.70
2022-12-16T12:41:19.160Z,6.90
2022-12-16T12:47:57.091Z,7.10
2022-12-16T12:54:13.990Z,7.20
2022-12-16T13:00:41.309Z,7.20
2022-12-16T13:07:18.953Z,7.30
2022-12-16T13:13:56.208Z,7.20
2022-12-16T13:20:12.238Z,7.20
2022-12-16T13:26:25.015Z,7.10
2022-12-16T13:33:09.299Z,7.10
2022-12-16T13:39:46.390Z,6.80
2022-12-16T13:46:19.876Z,6.80
2022-12-16T13:52:34.960Z,6.80
2022-12-16T13:59:16.992Z,6.50
2022-12-16T14:05:54.554Z,6.40
2022-12-16T14:12:12.606Z,6.30
2022-12-16T14:18:49.404Z,6.10
2022-12-16T14:25:40.013Z,6.00
2022-12-16T14:32:17.163Z,5.90
2022-12-16T14:38:48.757Z,5.60
2022-12-16T14:45:04.931Z,5.40
2022-12-16T14:51:44.724Z,5.30
2022-12-16T14:58:21.652Z,5.10
2022-12-16T15:04:37.649Z,4.80
2022-12-16T15:10:50.479Z,4.60
2022-12-16T15:17:40.544Z,4.30
2022-12-16T15:24:17.261Z,4.00
2022-12-16T15:30:49.061Z,3.70
2022-12-16T15:37:04.103Z,3.60
2022-12-16T15:43:50.264Z,3.40
2022-12-16T15:50:31.988Z,3.10
2022-12-16T15:56:51.744Z,2.90
2022-12-16T16:03:06.389Z,2.70
2022-12-16T16:09:45.770Z,2.50
2022-12-16T16:16:30.231Z,2.20
2022-12-16T16:22:43.268Z,2.00
2022-12-16T16:28:56.611Z,2.00
2022-12-16T16:35:33.841Z,1.80
2022-12-16T16:42:10.870Z,1.70
2022-12-16T16:48:30.619Z,1.60
2022-12-16T16:54:43.583Z,1.50
2022-12-16T17:01:41.495Z,1.30
2022-12-16T17:08:18.494Z,1.30
2022-12-16T17:14:32.144Z,1.10
2022-12-16T17:20:45.254Z,1.00
2022-12-16T17:27:36.262Z,1.00
2022-12-16T17:34:13.053Z,0.90
2022-12-16T17:40:26.019Z,0.80
2022-12-16T17:46:39.181Z,0.80
2022-12-16T17:53:16.639Z,0.90
2022-12-16T17:59:54.825Z,0.90
2022-12-16T18:06:08.185Z,0.90
2022-12-16T18:12:21.606Z,0.80
2022-12-16T18:18:58.725Z,0.80
2022-12-16T18:25:35.655Z,0.70
2022-12-16T18:31:48.807Z,0.70
2022-12-16T18:38:01.790Z,0.70
2022-12-16T18:44:39.085Z,0.60
2022-12-16T18:51:16.449Z,0.50
2022-12-16T18:57:29.443Z,0.60
2022-12-16T19:03:42.677Z,0.60
2022-12-16T19:10:31.966Z,0.60
2022-12-16T19:17:08.836Z,0.60
2022-12-16T19:23:21.580Z,0.80
2022-12-16T19:29:45.277Z,0.80
2022-12-16T19:36:22.490Z,0.80
2022-12-16T19:42:59.270Z,0.80
2022-12-16T19:49:12.441Z,0.70
2022-12-16T19:55:26.084Z,0.80
2022-12-16T20:02:04.083Z,0.70
2022-12-16T20:08:41.314Z,0.70
2022-12-16T20:14:56.586Z,0.70
2022-12-16T20:21:09.876Z,0.70
2022-12-16T20:27:46.766Z,0.70
2022-12-16T20:34:23.628Z,0.80
2022-12-16T20:40:36.572Z,0.80
2022-12-16T20:46:49.825Z,0.80
2022-12-16T20:53:40.906Z,0.70
2022-12-16T21:00:18.455Z,0.70
2022-12-16T21:06:31.664Z,0.70
2022-12-16T21:12:44.830Z,0.70
2022-12-16T21:19:35.195Z,0.60
2022-12-16T21:26:11.974Z,0.50
2022-12-16T21:32:44.055Z,0.60
2022-12-16T21:38:57.662Z,0.50
2022-12-16T21:45:34.723Z,0.50
2022-12-16T21:52:11.586Z,0.50
2022-12-16T21:58:28.352Z,0.40
2022-12-16T22:04:41.703Z,0.40
2022-12-16T22:11:18.541Z,0.40
2022-12-16T22:24:28.354Z,0.40
2022-12-16T22:30:41.406Z,0.20
2022-12-16T22:37:18.390Z,0.00
2022-12-16T22:43:55.148Z,-0.10
2022-12-16T22:50:09.817Z,0.00
2022-12-16T22:56:30.931Z,-0.10
2022-12-16T23:03:08.104Z,-0.10
2022-12-16T23:09:45.200Z,-0.20
2022-12-16T23:16:02.547Z,-0.20
2022-12-16T23:22:15.797Z,-0.30
2022-12-16T23:29:10.853Z,-0.30
2022-12-16T23:35:47.773Z,-0.40
2022-12-16T23:42:00.664Z,-0.40
2022-12-16T23:48:23.962Z,-0.50
2022-12-16T23:55:00.799Z,-0.50
